Dobrodošli na spletni strani vremenske postaje Senovo. Vse informacije so informativnega značaja, saj vremenska postaja ni del državne mreže meteoroloških postaj. AKTUALNIH OBVESTIL NI.


Posebna pozornost v zvezi z vremenskimi dogajanji ni potrebna.    Posebna pozornost v zvezi z vremenskimi dogajanji ni potrebna.

Pogled proti Armezu več informacij Pogled proti Armezu


Lisca več informacij Lisca


Radar strel več informacij blitzortung!


Radar padavin več informacij rain snow radar


Obiščite še:

Template documentation
and downloads

And another site



Weather Underground, zgodovina - Tekstovno

Dnevni povzetek za Februar 2, 2018 Enote:  Metrično    Angleško   Obe
« Predhodni Dan
Naslednji Dan »
Dnevni Tedenski Mesečni Letni Po meri
  Višja: Nižja: Povprečje:
Temperatura: -17.8 °C -17.4 °C -16.4 °C
Točka rosišča: -17.8 °C -18.2 °C -17.2 °C
Vlažnost: Humidity % 85 % 90 %
Hitrost vetra: 0 km/h 0 km/h 5.3 km/h
Sunki vetra: 0 km/h - -
Veter:- - SE
Zračni tlak: 0 hPa 33924.3 hPa -
Padavine: 342.9 mm    
Historical Graphs
 
 
Tabelarni podarki za Februar 2, 2018
Čas Temperatura Točka rosišča Zračni tlak Veter Hitrost vetra Sunki vetra Vlažnost Intenziteta padavin (urna)
-17.8 °C -17.8 °C 0 hPa Calm     Humidity % 0 mm
00:03 -13.9 °C -15.1 °C 33924.3 hPa Calm     87 % 12.7 mm
00:08 -13.9 °C -15.1 °C 33924.3 hPa Calm     87 % 7.62 mm
00:13 -13.9 °C -15.1 °C 33924.3 hPa Calm     87 % 7.62 mm
00:18 -14 °C -15.1 °C 33924.3 hPa Calm     87 % 7.62 mm
00:23 -14 °C -15.1 °C 33924.3 hPa Calm     87 % 7.62 mm
00:28 -14 °C -15.1 °C 33924.3 hPa Calm     88 % 7.62 mm
00:33 -14 °C -15.1 °C 33924.3 hPa Calm     88 % 7.62 mm
00:38 -14 °C -15.1 °C 33924.3 hPa Calm     88 % 7.62 mm
00:43 -14.1 °C -15.1 °C 33924.3 hPa Calm     88 % 0 mm
00:48 -14.1 °C -15 °C 33924.3 hPa Calm     89 % 0 mm
00:54 -14.1 °C -15 °C 33924.3 hPa Calm     89 % 7.62 mm
00:59 -14.1 °C -15 °C 33924.3 hPa Calm     89 % 7.62 mm
01:04 -14.1 °C -15 °C 33924.3 hPa Calm     89 % 7.62 mm
01:09 -14.1 °C -15 °C 33924.3 hPa Calm     89 % 7.62 mm
01:14 -14 °C -14.8 °C 33958.2 hPa Calm     90 % 7.62 mm
01:19 -14 °C -14.8 °C 33958.2 hPa Calm     90 % 7.62 mm
01:24 -14 °C -14.8 °C 33958.2 hPa Calm     90 % 7.62 mm
01:29 -14 °C -14.8 °C 33958.2 hPa Calm     90 % 7.62 mm
01:34 -14.1 °C -14.9 °C 33958.2 hPa Calm     90 % 7.62 mm
01:39 -14 °C -14.8 °C 33958.2 hPa Calm     91 % 7.62 mm
01:44 -14 °C -14.8 °C 33958.2 hPa Calm     91 % 7.62 mm
01:49 -14 °C -14.8 °C 33958.2 hPa Calm     91 % 7.62 mm
01:54 -14 °C -14.8 °C 33958.2 hPa Calm     91 % 7.62 mm
01:59 -14 °C -14.8 °C 33958.2 hPa Calm     91 % 7.62 mm
02:04 -13.9 °C -14.7 °C 33958.2 hPa NNW 0.5 km/h 6.9 km/h 91 % 7.62 mm
02:09 -13.9 °C -14.6 °C 33958.2 hPa NNW 0.8 km/h 6.9 km/h 92 % 7.62 mm
02:14 -13.9 °C -14.6 °C 33924.3 hPa West 2.9 km/h 10.3 km/h 92 % 7.62 mm
02:19 -13.9 °C -14.6 °C 33924.3 hPa WNW 5 km/h 10.3 km/h 92 % 12.7 mm
02:24 -13.9 °C -14.6 °C 33924.3 hPa WNW 2.6 km/h 9.3 km/h 92 % 12.7 mm
02:29 -13.9 °C -14.6 °C 33958.2 hPa Calm     92 % 20.32 mm
02:34 -13.9 °C -14.6 °C 33958.2 hPa NNW 0.3 km/h 4.2 km/h 92 % 20.32 mm
02:39 -13.9 °C -14.6 °C 33958.2 hPa NNW 0.3 km/h 4.2 km/h 92 % 20.32 mm
02:44 -13.9 °C -14.6 °C 33958.2 hPa Calm     92 % 20.32 mm
02:49 -13.9 °C -14.6 °C 33958.2 hPa WSW 0.8 km/h 7.6 km/h 92 % 20.32 mm
02:54 -13.8 °C -14.5 °C 33958.2 hPa WSW 1.3 km/h 7.6 km/h 92 % 20.32 mm
02:59 -13.8 °C -14.4 °C 33958.2 hPa SE 2.6 km/h 10.3 km/h 93 % 20.32 mm
03:04 -13.8 °C -14.4 °C 33958.2 hPa SE 5.6 km/h 15.6 km/h 93 % 20.32 mm
03:09 -13.8 °C -14.4 °C 33958.2 hPa ESE 10.3 km/h 22.5 km/h 93 % 20.32 mm
03:14 -13.9 °C -14.5 °C 33992.1 hPa East 13.5 km/h 31.4 km/h 93 % 25.4 mm
03:19 -14.1 °C -14.6 °C 33992.1 hPa East 14.2 km/h 31.4 km/h 93 % 20.32 mm
03:24 -14.2 °C -14.8 °C 33992.1 hPa East 13.7 km/h 20.9 km/h 93 % 20.32 mm
03:29 -14.3 °C -14.9 °C 33958.2 hPa East 15.8 km/h 31.9 km/h 93 % 12.7 mm
03:34 -14.5 °C -15.1 °C 33958.2 hPa East 18.3 km/h 31.9 km/h 93 % 12.7 mm
03:39 -14.7 °C -15.2 °C 33958.2 hPa East 14.8 km/h 29 km/h 93 % 20.32 mm
03:44 -14.8 °C -15.4 °C 33992.1 hPa East 11.6 km/h 26.2 km/h 92 % 25.4 mm
03:49 -14.9 °C -15.6 °C 33992.1 hPa East 15.3 km/h 31.9 km/h 92 % 25.4 mm
03:54 -15 °C -15.7 °C 33992.1 hPa East 14.5 km/h 31.9 km/h 92 % 33.02 mm
03:59 -15.2 °C -15.8 °C 33992.1 hPa ENE 15.3 km/h 38.3 km/h 92 % 38.1 mm
04:04 -15.4 °C -16.2 °C 33992.1 hPa NE 16.9 km/h 38.3 km/h 91 % 45.72 mm
04:09 -15.5 °C -16.3 °C 33992.1 hPa NE 14.2 km/h 30.7 km/h 90 % 45.72 mm
04:14 -15.6 °C -16.4 °C 33992.1 hPa NE 15.6 km/h 30.7 km/h 90 % 50.8 mm
04:19 -15.7 °C -16.6 °C 33992.1 hPa ENE 18.3 km/h 39.4 km/h 90 % 58.42 mm
04:24 -15.7 °C -16.6 °C 33992.1 hPa ENE 19.2 km/h 39.4 km/h 89 % 58.42 mm
04:29 -15.8 °C -16.7 °C 33992.1 hPa ENE 17.5 km/h 27.7 km/h 89 % 58.42 mm
04:34 -15.8 °C -16.7 °C 33992.1 hPa ENE 17.5 km/h 28.5 km/h 89 % 58.42 mm
04:39 -15.8 °C -16.8 °C 33992.1 hPa ENE 15.6 km/h 28.5 km/h 88 % 50.8 mm
04:44 -15.8 °C -16.8 °C 33992.1 hPa ENE 13.2 km/h 27.7 km/h 88 % 50.8 mm
04:49 -15.8 °C -16.8 °C 33992.1 hPa ENE 14.5 km/h 28.5 km/h 88 % 50.8 mm
04:54 -15.8 °C -16.8 °C 33992.1 hPa ENE 16.9 km/h 28.5 km/h 88 % 45.72 mm
04:59 -15.8 °C -16.8 °C 33992.1 hPa ENE 17.1 km/h 32.3 km/h 88 % 45.72 mm
05:04 -15.8 °C -16.8 °C 33992.1 hPa ENE 15.8 km/h 32.3 km/h 88 % 38.1 mm
05:09 -15.9 °C -16.9 °C 33992.1 hPa ENE 15.6 km/h 27.2 km/h 88 % 33.02 mm
05:14 -15.9 °C -17 °C 34029.3 hPa ENE 15.6 km/h 29 km/h 87 % 33.02 mm
05:19 -15.9 °C -17 °C 34029.3 hPa ENE 15 km/h 32.3 km/h 87 % 25.4 mm
05:24 -15.9 °C -17.1 °C 34029.3 hPa ENE 14.2 km/h 32.3 km/h 87 % 25.4 mm
05:29 -15.9 °C -17.1 °C 34029.3 hPa ENE 13.5 km/h 33.2 km/h 87 % 25.4 mm
05:34 -15.9 °C -17.1 °C 34029.3 hPa ENE 13.7 km/h 39.9 km/h 87 % 33.02 mm
05:39 -16 °C -17.1 °C 34029.3 hPa ENE 12.9 km/h 39.9 km/h 87 % 33.02 mm
05:44 -16 °C -17.2 °C 34029.3 hPa ENE 13.7 km/h 26.7 km/h 86 % 38.1 mm
05:49 -16.1 °C -17.2 °C 34029.3 hPa ENE 15.8 km/h 27.2 km/h 86 % 33.02 mm
05:54 -16.1 °C -17.3 °C 34029.3 hPa ENE 16.3 km/h 30.7 km/h 86 % 33.02 mm
05:59 -16.1 °C -17.3 °C 34029.3 hPa NE 14.2 km/h 34.1 km/h 86 % 33.02 mm
06:04 -16.1 °C -17.3 °C 34029.3 hPa NE 12.2 km/h 34.1 km/h 86 % 25.4 mm
06:09 -16.2 °C -17.4 °C 34029.3 hPa ENE 11.1 km/h 31.4 km/h 86 % 25.4 mm
06:14 -16.2 °C -17.4 °C 34029.3 hPa East 13.2 km/h 31.4 km/h 86 % 25.4 mm
06:19 -16.2 °C -17.4 °C 34029.3 hPa ENE 14.2 km/h 28.5 km/h 86 % 25.4 mm
06:24 -16.2 °C -17.4 °C 34029.3 hPa ENE 13.5 km/h 33.2 km/h 86 % 20.32 mm
06:29 -16.2 °C -17.4 °C 34029.3 hPa ENE 11.6 km/h 33.2 km/h 86 % 12.7 mm
06:34 -16.3 °C -17.4 °C 34029.3 hPa ENE 11.1 km/h 25.4 km/h 86 % 12.7 mm
06:39 -16.3 °C -17.4 °C 34029.3 hPa ENE 11.9 km/h 24.8 km/h 86 % 7.62 mm
06:44 -16.3 °C -17.4 °C 34029.3 hPa NE 11.1 km/h 22 km/h 86 % 7.62 mm
06:49 -16.3 °C -17.4 °C 34029.3 hPa NE 11.9 km/h 26.7 km/h 86 % 0 mm
06:54 -16.3 °C -17.4 °C 34029.3 hPa ENE 14.2 km/h 26.7 km/h 86 % 0 mm
06:59 -16.3 °C -17.4 °C 34029.3 hPa ENE 15.6 km/h 23 km/h 86 % 0 mm
07:04 -16.3 °C -17.4 °C 34029.3 hPa ENE 18.7 km/h 28.5 km/h 86 % 0 mm
07:09 -16.3 °C -17.4 °C 34029.3 hPa ENE 20.4 km/h 28.5 km/h 86 % 0 mm
07:14 -16.2 °C -17.4 °C 34029.3 hPa ENE 19.6 km/h 38.3 km/h 86 % 0 mm
07:19 -16.2 °C -17.4 °C 34029.3 hPa ENE 16.6 km/h 38.3 km/h 86 % 0 mm
07:24 -16.2 °C -17.4 °C 34029.3 hPa ENE 18.8 km/h 33.2 km/h 86 % 0 mm
07:29 -16.3 °C -17.4 °C 34029.3 hPa ENE 19.5 km/h 33.2 km/h 86 % 0 mm
07:34 -16.3 °C -17.4 °C 34029.3 hPa ENE 16.9 km/h 28.5 km/h 86 % 0 mm
07:39 -16.3 °C -17.4 °C 34029.3 hPa ENE 17.4 km/h 28.5 km/h 86 % 0 mm
07:44 -16.3 °C -17.6 °C 34029.3 hPa ENE 12.9 km/h 22.5 km/h 85 % 0 mm
07:49 -16.3 °C -17.6 °C 34029.3 hPa ENE 10.9 km/h 22.5 km/h 85 % 0 mm
07:54 -16.3 °C -17.6 °C 34029.3 hPa East 10.9 km/h 22.5 km/h 85 % 0 mm
07:59 -16.3 °C -17.6 °C 33992.1 hPa SE 11.9 km/h 22.5 km/h 85 % 0 mm
08:04 -16.3 °C -17.6 °C 33992.1 hPa ENE 18.7 km/h 33.6 km/h 85 % 0 mm
08:09 -16.3 °C -17.6 °C 33992.1 hPa ENE 15 km/h 33.6 km/h 85 % 0 mm
08:14 -16.4 °C -17.7 °C 33992.1 hPa NE 14.5 km/h 31.9 km/h 85 % 0 mm
08:19 -16.4 °C -17.7 °C 33992.1 hPa NE 15 km/h 31.9 km/h 85 % 0 mm
08:24 -16.4 °C -17.7 °C 33992.1 hPa NE 12.4 km/h 22.5 km/h 85 % 0 mm
08:29 -16.4 °C -17.7 °C 33992.1 hPa ENE 13.7 km/h 27.2 km/h 85 % 0 mm
08:34 -16.4 °C -17.7 °C 33992.1 hPa ENE 14.2 km/h 27.7 km/h 85 % 0 mm
08:39 -16.4 °C -17.7 °C 33992.1 hPa ENE 14.2 km/h 27.7 km/h 85 % 0 mm
08:44 -16.4 °C -17.7 °C 34029.3 hPa ENE 14.2 km/h 27.7 km/h 85 % 0 mm
08:49 -16.4 °C -17.7 °C 34029.3 hPa ENE 14.2 km/h 27.7 km/h 85 % 0 mm
08:54 -16.6 °C -17.9 °C 34029.3 hPa East 14.8 km/h 27.7 km/h 85 % 0 mm
08:59 -16.6 °C -17.8 °C 34029.3 hPa East 14.5 km/h 27.7 km/h 86 % 0 mm
09:04 -16.6 °C -17.8 °C 34029.3 hPa East 10.1 km/h 24.3 km/h 86 % 0 mm
09:09 -16.6 °C -17.8 °C 34029.3 hPa ENE 11.6 km/h 24.3 km/h 86 % 0 mm
09:14 -16.6 °C -17.8 °C 34063.2 hPa East 12.7 km/h 19.6 km/h 86 % 0 mm
09:19 -16.6 °C -17.8 °C 34063.2 hPa ESE 9 km/h 19.6 km/h 86 % 0 mm
09:24 -16.6 °C -17.8 °C 34063.2 hPa East 8.5 km/h 22.5 km/h 86 % 0 mm
09:29 -16.6 °C -17.8 °C 34029.3 hPa East 9.3 km/h 25.4 km/h 86 % 0 mm
09:34 -16.7 °C -17.8 °C 34029.3 hPa ENE 8.9 km/h 25.4 km/h 86 % 0 mm
09:39 -16.7 °C -17.8 °C 34029.3 hPa NE 8.9 km/h 17.9 km/h 86 % 0 mm
09:44 -16.6 °C -17.8 °C 34029.3 hPa ENE 11.6 km/h 27.2 km/h 86 % 0 mm
09:49 -16.6 °C -17.7 °C 34029.3 hPa ENE 11.4 km/h 27.2 km/h 87 % 0 mm
09:54 -16.5 °C -17.6 °C 34029.3 hPa ENE 8.9 km/h 22 km/h 87 % 0 mm
09:59 -16.5 °C -17.6 °C 34029.3 hPa ESE 9 km/h 15.6 km/h 87 % 0 mm
10:04 -16.4 °C -17.6 °C 34029.3 hPa SE 8.2 km/h 15.6 km/h 87 % 0 mm
10:10 -16.4 °C -17.4 °C 34029.3 hPa ESE 8 km/h 16.3 km/h 87 % 0 mm
10:15 -16.4 °C -17.4 °C 34029.3 hPa East 10.1 km/h 20.9 km/h 87 % 0 mm
10:20 -16.4 °C -17.4 °C 34029.3 hPa ESE 10.3 km/h 20.9 km/h 87 % 0 mm
10:25 -16.3 °C -17.4 °C 34029.3 hPa ESE 10.9 km/h 22.5 km/h 87 % 0 mm
10:30 -16.3 °C -17.3 °C 34029.3 hPa ESE 11.4 km/h 22.5 km/h 88 % 0 mm
10:35 -16.3 °C -17.3 °C 34029.3 hPa East 9.8 km/h 16.9 km/h 88 % 0 mm
10:40 -16.3 °C -17.3 °C 34029.3 hPa ESE 12.2 km/h 26.2 km/h 88 % 0 mm
10:45 -16.3 °C -17.3 °C 34029.3 hPa ESE 17.1 km/h 30.7 km/h 88 % 0 mm
10:50 -16.3 °C -17.3 °C 34029.3 hPa ESE 17.5 km/h 39.4 km/h 88 % 0 mm
10:55 -16.3 °C -17.3 °C 34063.2 hPa ESE 18.2 km/h 39.4 km/h 88 % 0 mm
11:00 -16.3 °C -17.3 °C 34063.2 hPa ESE 16.1 km/h 31.9 km/h 88 % 0 mm
11:05 -16.4 °C -17.4 °C 34063.2 hPa ESE 13.5 km/h 27.7 km/h 88 % 0 mm
11:10 -16.4 °C -17.4 °C 34063.2 hPa East 10.9 km/h 20.9 km/h 88 % 0 mm
11:15 -16.4 °C -17.4 °C 34063.2 hPa ESE 6.9 km/h 15.6 km/h 88 % 0 mm
11:20 -16.4 °C -17.4 °C 34063.2 hPa East 6.9 km/h 15.6 km/h 88 % 0 mm
11:25 -16.4 °C -17.4 °C 34097 hPa NE 6.8 km/h 14 km/h 88 % 0 mm
11:30 -16.4 °C -17.4 °C 34097 hPa North 5 km/h 9.8 km/h 88 % 0 mm
11:35 -16.5 °C -17.5 °C 34097 hPa WNW 4.2 km/h 12.2 km/h 88 % 0 mm
11:40 -16.6 °C -17.6 °C 34097 hPa WNW 5 km/h 12.2 km/h 88 % 0 mm
11:45 -16.7 °C -17.7 °C 34097 hPa WNW 4.2 km/h 11.1 km/h 88 % 0 mm
11:50 -16.8 °C -17.8 °C 34097 hPa SW 2.1 km/h 6.4 km/h 88 % 0 mm
11:55 -16.8 °C -17.8 °C 34097 hPa SW 3.7 km/h 10.3 km/h 88 % 0 mm
12:00 -16.9 °C -17.9 °C 34097 hPa SW 2.9 km/h 10.3 km/h 88 % 0 mm
12:05 -16.9 °C -17.9 °C 34097 hPa SW 1.6 km/h 6.4 km/h 88 % 0 mm
12:10 -17 °C -18 °C 34097 hPa SSW 3.9 km/h 8 km/h 88 % 0 mm
12:15 -17 °C -18 °C 34097 hPa SSW 3.7 km/h 8 km/h 88 % 0 mm
12:20 -17.1 °C -18 °C 34097 hPa South 1.8 km/h 6.4 km/h 88 % 0 mm
12:25 -17.1 °C -18.1 °C 34063.2 hPa NE 0.8 km/h 2.9 km/h 88 % 0 mm
12:30 -17.1 °C -18.1 °C 34063.2 hPa NE 0.5 km/h 2.9 km/h 88 % 0 mm
12:35 -17.2 °C -18.2 °C 34063.2 hPa South 0.5 km/h 5.1 km/h 88 % 0 mm
12:40 -17.2 °C -18.2 °C 34063.2 hPa South 0.5 km/h 5.6 km/h 88 % 0 mm
12:45 -17.2 °C -18.2 °C 34063.2 hPa NE 0.8 km/h 7.6 km/h 88 % 0 mm
12:50 -17.2 °C -18.2 °C 34063.2 hPa WSW 3.7 km/h 11.6 km/h 88 % 0 mm
12:55 -17.2 °C -18.2 °C 34063.2 hPa West 5.6 km/h 11.6 km/h 88 % 0 mm
13:00 -17.2 °C -18.2 °C 34063.2 hPa WSW 5.6 km/h 8.9 km/h 88 % 0 mm
13:05 -17.2 °C -18.2 °C 34063.2 hPa WSW 4.7 km/h 8 km/h 88 % 0 mm
13:10 -17.2 °C -18.2 °C 34029.3 hPa NW 3.4 km/h 8 km/h 88 % 0 mm
13:15 -17.2 °C -18.1 °C 34029.3 hPa NW 2.3 km/h 8.9 km/h 89 % 0 mm
13:20 -17.2 °C -18.1 °C 34029.3 hPa WNW 1.8 km/h 8.9 km/h 89 % 0 mm
13:25 -17.2 °C -18.1 °C 34029.3 hPa NW 2.9 km/h 10.3 km/h 89 % 0 mm
13:30 -17.2 °C -18.1 °C 34029.3 hPa WNW 2.6 km/h 10.3 km/h 89 % 0 mm
13:35 -17.2 °C -18.1 °C 34029.3 hPa NW 2.1 km/h 8 km/h 89 % 0 mm
13:40 -17.2 °C -18.1 °C 34029.3 hPa West 3.9 km/h 9.8 km/h 89 % 0 mm
13:45 -17.2 °C -18.1 °C 34029.3 hPa West 5.5 km/h 9.8 km/h 89 % 0 mm
13:50 -17.2 °C -18.1 °C 34029.3 hPa WNW 3.1 km/h 7.6 km/h 89 % 0 mm
13:55 -17.2 °C -18.1 °C 34063.2 hPa WNW 3.1 km/h 7.6 km/h 89 % 0 mm
14:00 -17.2 °C -18.1 °C 34063.2 hPa NNW 2.3 km/h 6.9 km/h 89 % 0 mm
14:05 -17.2 °C -18.1 °C 34063.2 hPa NNE 3.7 km/h 9.8 km/h 89 % 0 mm
14:10 -17.2 °C -18.1 °C 34063.2 hPa WSW 3.9 km/h 10.3 km/h 89 % 0 mm
14:15 -17.2 °C -18 °C 34063.2 hPa SSW 5.1 km/h 12.7 km/h 90 % 0 mm
14:20 -17.2 °C -18 °C 34063.2 hPa South 5.6 km/h 12.7 km/h 90 % 7.62 mm
14:25 -17.2 °C -18 °C 34063.2 hPa Calm     90 % 20.32 mm
14:30 -17.2 °C -18 °C 34063.2 hPa Calm     90 % 38.1 mm
14:35 -17.2 °C -18 °C 34063.2 hPa Calm     90 % 50.8 mm
14:40 -17.2 °C -18 °C 34063.2 hPa Calm     90 % 58.42 mm
14:45 -17.2 °C -18 °C 34063.2 hPa Calm     90 % 71.12 mm
14:50 -17.2 °C -18 °C 34063.2 hPa South 0.5 km/h 5.6 km/h 90 % 76.2 mm
14:55 -17.2 °C -17.9 °C 34029.3 hPa South 0.8 km/h 5.6 km/h 90 % 76.2 mm
15:00 -17.2 °C -17.9 °C 34029.3 hPa SSE 1.3 km/h 6.4 km/h 91 % 83.82 mm
15:05 -17.2 °C -17.9 °C 34029.3 hPa SSE 1.6 km/h 6.4 km/h 91 % 91.44 mm
15:10 -17.2 °C -17.9 °C 34063.2 hPa SSW 2.3 km/h 8 km/h 91 % 96.52 mm
15:15 -17.1 °C -17.8 °C 34063.2 hPa SSW 2.9 km/h 8 km/h 91 % 96.52 mm
15:20 -17.1 °C -17.8 °C 34063.2 hPa South 2.6 km/h 6.9 km/h 91 % 96.52 mm
15:25 -17.1 °C -17.8 °C 34063.2 hPa SSE 2.6 km/h 6.9 km/h 91 % 83.82 mm
15:30 -17.1 °C -17.8 °C 34063.2 hPa SSE 1.6 km/h 5.1 km/h 91 % 63.5 mm
15:35 -17.1 °C -17.7 °C 34063.2 hPa SSE 0.5 km/h 4.2 km/h 92 % 58.42 mm
15:40 -17.1 °C -17.7 °C 34063.2 hPa Calm     92 % 50.8 mm
15:45 -17.1 °C -17.7 °C 34063.2 hPa West 1 km/h 7.6 km/h 92 % 45.72 mm
15:50 -17.1 °C -17.7 °C 34063.2 hPa West 1 km/h 7.6 km/h 92 % 45.72 mm
15:55 -17.1 °C -17.7 °C 34097 hPa South 2.9 km/h 10.3 km/h 92 % 45.72 mm
16:00 -17.1 °C -17.7 °C 34097 hPa South 4.7 km/h 10.3 km/h 92 % 38.1 mm
16:05 -17.1 °C -17.7 °C 34097 hPa South 1.8 km/h 6.9 km/h 92 % 38.1 mm
16:10 -17.1 °C -17.7 °C 34063.2 hPa Calm     92 % 33.02 mm
16:15 -17.1 °C -17.7 °C 34063.2 hPa Calm     92 % 38.1 mm
16:20 -17.1 °C -17.7 °C 34063.2 hPa Calm     92 % 33.02 mm
16:25 -17.1 °C -17.7 °C 34097 hPa Calm     92 % 33.02 mm
16:30 -17.1 °C -17.7 °C 34097 hPa Calm     92 % 25.4 mm
16:35 -17.1 °C -17.7 °C 34097 hPa Calm     92 % 25.4 mm
16:40 -17.1 °C -17.7 °C 34063.2 hPa Calm     92 % 25.4 mm
16:45 -17.1 °C -17.6 °C 34063.2 hPa Calm     93 % 20.32 mm
16:50 -17.1 °C -17.7 °C 34063.2 hPa Calm     93 % 12.7 mm
16:55 -17.1 °C -17.7 °C 34063.2 hPa Calm     93 % 12.7 mm
17:00 -17.1 °C -17.7 °C 34063.2 hPa Calm     93 % 12.7 mm
17:05 -17.1 °C -17.7 °C 34063.2 hPa Calm     93 % 7.62 mm
17:10 -17.2 °C -17.7 °C 34097 hPa Calm     93 % 7.62 mm
17:15 -17.2 °C -17.7 °C 34097 hPa Calm     93 % 7.62 mm
17:20 -17.2 °C -17.7 °C 34097 hPa Calm     93 % 7.62 mm
17:25 -17.2 °C -17.7 °C 34097 hPa Calm     93 % 7.62 mm
17:30 -17.2 °C -17.7 °C 34097 hPa Calm     93 % 7.62 mm
17:35 -17.2 °C -17.8 °C 34097 hPa Calm     93 % 7.62 mm
17:40 -17.2 °C -17.8 °C 34130.9 hPa Calm     93 % 7.62 mm
17:45 -17.2 °C -17.8 °C 34130.9 hPa Calm     93 % 7.62 mm
17:50 -17.2 °C -17.8 °C 34130.9 hPa Calm     93 % 7.62 mm
17:55 -17.2 °C -17.8 °C 34097 hPa Calm     93 % 7.62 mm
18:00 -17.3 °C -17.8 °C 34097 hPa Calm     93 % 7.62 mm
18:05 -17.3 °C -17.7 °C 34097 hPa Calm     94 % 7.62 mm
18:10 -17.3 °C -17.7 °C 34097 hPa Calm     94 % 7.62 mm
18:15 -17.3 °C -17.7 °C 34097 hPa Calm     94 % 7.62 mm
18:20 -17.3 °C -17.7 °C 34097 hPa Calm     94 % 7.62 mm
18:25 -17.3 °C -17.7 °C 34097 hPa Calm     94 % 7.62 mm
18:30 -17.3 °C -17.7 °C 34097 hPa Calm     94 % 7.62 mm
18:35 -17.3 °C -17.8 °C 34097 hPa Calm     94 % 7.62 mm
18:40 -17.3 °C -17.8 °C 34097 hPa Calm     94 % 7.62 mm
18:45 -17.3 °C -17.8 °C 34097 hPa Calm     94 % 7.62 mm
18:50 -17.3 °C -17.8 °C 34097 hPa Calm     94 % 7.62 mm
18:55 -17.3 °C -17.8 °C 34097 hPa Calm     94 % 0 mm
19:00 -17.3 °C -17.8 °C 34097 hPa Calm     94 % 0 mm
19:05 -17.3 °C -17.8 °C 34097 hPa Calm     94 % 0 mm
19:10 -17.3 °C -17.8 °C 34063.2 hPa Calm     94 % 0 mm
19:15 -17.3 °C -17.7 °C 34063.2 hPa Calm     94 % 0 mm
19:20 -17.3 °C -17.8 °C 34063.2 hPa Calm     94 % 0 mm
19:25 -17.3 °C -17.8 °C 34063.2 hPa Calm     94 % 0 mm
19:30 -17.3 °C -17.8 °C 34063.2 hPa Calm     94 % 0 mm
19:35 -17.3 °C -17.8 °C 34063.2 hPa Calm     94 % 0 mm
19:40 -17.3 °C -17.7 °C 34097 hPa Calm     94 % 0 mm
19:45 -17.3 °C -17.8 °C 34097 hPa Calm     94 % 0 mm
19:50 -17.3 °C -17.8 °C 34097 hPa Calm     94 % 0 mm
19:55 -17.3 °C -17.8 °C 34063.2 hPa Calm     94 % 0 mm
20:00 -17.3 °C -17.8 °C 34063.2 hPa Calm     94 % 7.62 mm
20:05 -17.3 °C -17.8 °C 34063.2 hPa Calm     94 % 7.62 mm
20:10 -17.3 °C -17.8 °C 34063.2 hPa Calm     94 % 7.62 mm
20:15 -17.3 °C -17.8 °C 34063.2 hPa Calm     94 % 7.62 mm
20:20 -17.3 °C -17.8 °C 34063.2 hPa Calm     94 % 7.62 mm
20:25 -17.3 °C -17.7 °C 34097 hPa Calm     95 % 7.62 mm
20:30 -17.3 °C -17.7 °C 34097 hPa Calm     95 % 7.62 mm
20:35 -17.3 °C -17.7 °C 34097 hPa Calm     95 % 7.62 mm
20:40 -17.3 °C -17.7 °C 34097 hPa Calm     95 % 7.62 mm
20:45 -17.3 °C -17.7 °C 34097 hPa Calm     95 % 7.62 mm
20:50 -17.3 °C -17.7 °C 34097 hPa Calm     95 % 7.62 mm
20:55 -17.3 °C -17.7 °C 34097 hPa Calm     95 % 7.62 mm
21:01 -17.3 °C -17.7 °C 34097 hPa Calm     95 % 0 mm
21:06 -17.3 °C -17.7 °C 34097 hPa Calm     95 % 0 mm
21:11 -17.3 °C -17.7 °C 34097 hPa Calm     95 % 0 mm
21:16 -17.3 °C -17.7 °C 34097 hPa Calm     95 % 0 mm
21:21 -17.3 °C -17.7 °C 34097 hPa Calm     95 % 0 mm
21:26 -17.3 °C -17.7 °C 34097 hPa Calm     95 % 0 mm
21:31 -17.3 °C -17.7 °C 34097 hPa Calm     95 % 0 mm
21:36 -17.3 °C -17.7 °C 34097 hPa Calm     95 % 0 mm
21:41 -17.3 °C -17.7 °C 34097 hPa Calm     95 % 0 mm
21:46 -17.3 °C -17.7 °C 34097 hPa Calm     95 % 0 mm
21:51 -17.3 °C -17.7 °C 34097 hPa Calm     95 % 0 mm
21:56 -17.3 °C -17.7 °C 34130.9 hPa Calm     95 % 0 mm
22:01 -17.3 °C -17.7 °C 34130.9 hPa Calm     95 % 0 mm
22:06 -17.3 °C -17.7 °C 34130.9 hPa Calm     95 % 0 mm
22:11 -17.3 °C -17.7 °C 34097 hPa Calm     95 % 7.62 mm
22:16 -17.3 °C -17.7 °C 34097 hPa Calm     95 % 7.62 mm
22:21 -17.3 °C -17.7 °C 34097 hPa Calm     95 % 7.62 mm
22:26 -17.3 °C -17.7 °C 34097 hPa Calm     95 % 7.62 mm
22:31 -17.3 °C -17.7 °C 34097 hPa Calm     95 % 7.62 mm
22:36 -17.3 °C -17.7 °C 34097 hPa Calm     95 % 7.62 mm
22:41 -17.3 °C -17.7 °C 34097 hPa Calm     95 % 7.62 mm
22:46 -17.3 °C -17.7 °C 34097 hPa Calm     95 % 7.62 mm
22:51 -17.4 °C -17.8 °C 34097 hPa SW 0.5 km/h 5.6 km/h 95 % 7.62 mm
22:57 -17.4 °C -17.8 °C 34097 hPa SW 0.5 km/h 5.6 km/h 95 % 12.7 mm
23:02 -17.4 °C -17.8 °C 34097 hPa Calm     95 % 12.7 mm
23:07 -17.4 °C -17.8 °C 34097 hPa Calm     95 % 12.7 mm
23:12 -17.4 °C -17.8 °C 34097 hPa South 0.8 km/h 6.4 km/h 95 % 12.7 mm
23:17 -17.4 °C -17.8 °C 34097 hPa South 1 km/h 6.4 km/h 95 % 20.32 mm
23:22 -17.4 °C -17.8 °C 34097 hPa South 0.3 km/h 2.3 km/h 95 % 20.32 mm
23:27 -17.4 °C -17.8 °C 34097 hPa Calm     95 % 20.32 mm
23:32 -17.4 °C -17.8 °C 34097 hPa Calm     95 % 25.4 mm
23:37 -17.4 °C -17.8 °C 34097 hPa Calm     95 % 25.4 mm
23:42 -17.4 °C -17.8 °C 34063.2 hPa Calm     95 % 33.02 mm
23:47 -17.4 °C -17.8 °C 34063.2 hPa Calm     95 % 33.02 mm
23:52 -17.4 °C -17.8 °C 34063.2 hPa Calm   3.4 km/h 95 % 33.02 mm
23:57 -17.4 °C -17.8 °C 34097 hPa South 0.3 km/h 3.4 km/h 95 % 33.02 mm
Vremenska postaja Senovo
Podatki zbrani iz Weather Underground - 2.75 mb

Script developed by  Jim McMurry - jmcmurry@mwt.net Adapted for the template by  Wim van der Kuil - Leuven-Template.eu

Vremenski podatki so objavljeni na:

European Weather Network

WeatherCloud

Weather Underground

AWEKAS

HAMweather, WeatherForYou, PWS Weather

MapView

Geostik

Slovenia weather network

Oprema, ki se uporablja:

Vremenski program
Cumulus

Vremenski server
Asus

Cumulus

Asus